sensor_id;sensor_type;location;lat;lon;timestamp;temperature;humidity
19085;DHT22;9675;51.538;6.728;2022-12-07T00:01:47;6.70;99.90
19085;DHT22;9675;51.538;6.728;2022-12-07T00:04:16;6.70;99.90
19085;DHT22;9675;51.538;6.728;2022-12-07T00:06:46;6.60;99.90
19085;DHT22;9675;51.538;6.728;2022-12-07T00:09:17;6.60;99.90
19085;DHT22;9675;51.538;6.728;2022-12-07T00:11:48;6.60;99.90
19085;DHT22;9675;51.538;6.728;2022-12-07T00:14:17;6.60;99.90
19085;DHT22;9675;51.538;6.728;2022-12-07T00:16:49;6.60;99.90
19085;DHT22;9675;51.538;6.728;2022-12-07T00:19:17;6.60;99.90
19085;DHT22;9675;51.538;6.728;2022-12-07T00:21:44;6.60;99.90
19085;DHT22;9675;51.538;6.728;2022-12-07T00:24:11;6.60;99.90
19085;DHT22;9675;51.538;6.728;2022-12-07T00:26:40;6.60;99.90
19085;DHT22;9675;51.538;6.728;2022-12-07T00:29:13;6.60;99.90
19085;DHT22;9675;51.538;6.728;2022-12-07T00:31:42;6.60;99.90
19085;DHT22;9675;51.538;6.728;2022-12-07T00:34:14;6.60;99.90
19085;DHT22;9675;51.538;6.728;2022-12-07T00:36:42;6.60;99.90
19085;DHT22;9675;51.538;6.728;2022-12-07T00:39:09;6.60;99.90
19085;DHT22;9675;51.538;6.728;2022-12-07T00:41:36;6.60;99.90
19085;DHT22;9675;51.538;6.728;2022-12-07T00:44:03;6.60;99.90
19085;DHT22;9675;51.538;6.728;2022-12-07T00:46:30;6.60;99.90
19085;DHT22;9675;51.538;6.728;2022-12-07T00:48:57;6.60;99.90
19085;DHT22;9675;51.538;6.728;2022-12-07T00:51:26;6.60;99.90
19085;DHT22;9675;51.538;6.728;2022-12-07T00:53:53;6.60;99.90
19085;DHT22;9675;51.538;6.728;2022-12-07T00:56:22;6.60;99.90
19085;DHT22;9675;51.538;6.728;2022-12-07T00:58:51;6.60;99.90
19085;DHT22;9675;51.538;6.728;2022-12-07T01:01:19;6.60;99.90
19085;DHT22;9675;51.538;6.728;2022-12-07T01:03:47;6.60;99.90
19085;DHT22;9675;51.538;6.728;2022-12-07T01:06:15;6.60;99.90
19085;DHT22;9675;51.538;6.728;2022-12-07T01:08:44;6.60;99.90
19085;DHT22;9675;51.538;6.728;2022-12-07T01:11:14;6.60;99.90
19085;DHT22;9675;51.538;6.728;2022-12-07T01:13:43;6.60;99.90
19085;DHT22;9675;51.538;6.728;2022-12-07T01:16:12;6.60;99.90
19085;DHT22;9675;51.538;6.728;2022-12-07T01:18:42;6.50;99.90
19085;DHT22;9675;51.538;6.728;2022-12-07T01:21:13;6.50;99.90
19085;DHT22;9675;51.538;6.728;2022-12-07T01:23:44;6.60;99.90
19085;DHT22;9675;51.538;6.728;2022-12-07T01:26:13;6.50;99.90
19085;DHT22;9675;51.538;6.728;2022-12-07T01:28:41;6.50;99.90
19085;DHT22;9675;51.538;6.728;2022-12-07T01:31:09;6.50;99.90
19085;DHT22;9675;51.538;6.728;2022-12-07T01:33:41;6.50;99.90
19085;DHT22;9675;51.538;6.728;2022-12-07T01:36:16;6.50;99.90
19085;DHT22;9675;51.538;6.728;2022-12-07T01:38:47;6.50;99.90
19085;DHT22;9675;51.538;6.728;2022-12-07T01:41:17;6.50;99.90
19085;DHT22;9675;51.538;6.728;2022-12-07T01:44:10;6.40;99.90
19085;DHT22;9675;51.538;6.728;2022-12-07T01:46:41;6.40;99.90
19085;DHT22;9675;51.538;6.728;2022-12-07T01:49:14;6.40;99.90
19085;DHT22;9675;51.538;6.728;2022-12-07T01:51:46;6.40;99.90
19085;DHT22;9675;51.538;6.728;2022-12-07T01:54:17;6.40;99.90
19085;DHT22;9675;51.538;6.728;2022-12-07T01:56:50;6.40;99.90
19085;DHT22;9675;51.538;6.728;2022-12-07T01:59:21;6.40;99.90
19085;DHT22;9675;51.538;6.728;2022-12-07T02:01:51;6.40;99.90
19085;DHT22;9675;51.538;6.728;2022-12-07T02:04:19;6.40;99.90
19085;DHT22;9675;51.538;6.728;2022-12-07T02:06:48;6.50;99.90
19085;DHT22;9675;51.538;6.728;2022-12-07T02:09:19;6.40;99.90
19085;DHT22;9675;51.538;6.728;2022-12-07T02:11:46;6.40;99.90
19085;DHT22;9675;51.538;6.728;2022-12-07T02:14:13;6.40;99.90
19085;DHT22;9675;51.538;6.728;2022-12-07T02:16:47;6.40;99.90
19085;DHT22;9675;51.538;6.728;2022-12-07T02:19:45;6.40;99.90
19085;DHT22;9675;51.538;6.728;2022-12-07T02:22:49;6.40;99.90
19085;DHT22;9675;51.538;6.728;2022-12-07T02:25:39;6.40;99.90
19085;DHT22;9675;51.538;6.728;2022-12-07T02:28:26;6.40;99.90
19085;DHT22;9675;51.538;6.728;2022-12-07T02:31:04;6.30;99.90
19085;DHT22;9675;51.538;6.728;2022-12-07T02:33:37;6.40;99.90
19085;DHT22;9675;51.538;6.728;2022-12-07T02:36:14;6.30;99.90
19085;DHT22;9675;51.538;6.728;2022-12-07T02:38:51;6.30;99.90
19085;DHT22;9675;51.538;6.728;2022-12-07T02:41:28;6.30;99.90
19085;DHT22;9675;51.538;6.728;2022-12-07T02:44:02;6.30;99.90
19085;DHT22;9675;51.538;6.728;2022-12-07T02:46:38;6.30;99.90
19085;DHT22;9675;51.538;6.728;2022-12-07T02:49:08;6.30;99.90
19085;DHT22;9675;51.538;6.728;2022-12-07T02:51:40;6.30;99.90
19085;DHT22;9675;51.538;6.728;2022-12-07T02:54:11;6.30;99.90
19085;DHT22;9675;51.538;6.728;2022-12-07T02:56:44;6.20;99.90
19085;DHT22;9675;51.538;6.728;2022-12-07T02:59:21;6.20;99.90
19085;DHT22;9675;51.538;6.728;2022-12-07T03:02:07;6.20;99.90
19085;DHT22;9675;51.538;6.728;2022-12-07T03:04:45;6.20;99.90
19085;DHT22;9675;51.538;6.728;2022-12-07T03:07:28;6.20;99.90
19085;DHT22;9675;51.538;6.728;2022-12-07T03:10:10;6.20;99.90
19085;DHT22;9675;51.538;6.728;2022-12-07T03:12:46;6.20;99.90
19085;DHT22;9675;51.538;6.728;2022-12-07T03:15:26;6.10;99.90
19085;DHT22;9675;51.538;6.728;2022-12-07T03:18:01;6.10;99.90
19085;DHT22;9675;51.538;6.728;2022-12-07T03:20:32;6.10;99.90
19085;DHT22;9675;51.538;6.728;2022-12-07T03:23:04;6.10;99.90
19085;DHT22;9675;51.538;6.728;2022-12-07T03:25:36;6.10;99.90
19085;DHT22;9675;51.538;6.728;2022-12-07T03:28:08;6.10;99.90
19085;DHT22;9675;51.538;6.728;2022-12-07T03:30:43;6.00;99.90
19085;DHT22;9675;51.538;6.728;2022-12-07T03:33:21;6.00;99.90
19085;DHT22;9675;51.538;6.728;2022-12-07T03:36:00;6.00;99.90
19085;DHT22;9675;51.538;6.728;2022-12-07T03:38:33;6.00;99.90
19085;DHT22;9675;51.538;6.728;2022-12-07T03:41:08;6.00;99.90
19085;DHT22;9675;51.538;6.728;2022-12-07T03:43:38;6.00;99.90
19085;DHT22;9675;51.538;6.728;2022-12-07T03:46:16;6.00;99.90
19085;DHT22;9675;51.538;6.728;2022-12-07T03:48:57;6.00;99.90
19085;DHT22;9675;51.538;6.728;2022-12-07T03:51:36;6.00;99.90
19085;DHT22;9675;51.538;6.728;2022-12-07T03:54:10;6.00;99.90
19085;DHT22;9675;51.538;6.728;2022-12-07T03:56:43;5.90;99.90
19085;DHT22;9675;51.538;6.728;2022-12-07T03:59:13;5.90;99.90
19085;DHT22;9675;51.538;6.728;2022-12-07T04:01:42;5.90;99.90
19085;DHT22;9675;51.538;6.728;2022-12-07T04:04:11;5.90;99.90
19085;DHT22;9675;51.538;6.728;2022-12-07T04:06:38;5.80;99.90
19085;DHT22;9675;51.538;6.728;2022-12-07T04:09:05;5.90;99.90
19085;DHT22;9675;51.538;6.728;2022-12-07T04:11:32;5.80;99.90
19085;DHT22;9675;51.538;6.728;2022-12-07T04:13:59;5.80;99.90
19085;DHT22;9675;51.538;6.728;2022-12-07T04:16:44;5.80;99.90
19085;DHT22;9675;51.538;6.728;2022-12-07T04:19:14;5.80;99.90
19085;DHT22;9675;51.538;6.728;2022-12-07T04:21:41;5.80;99.90
19085;DHT22;9675;51.538;6.728;2022-12-07T04:24:09;5.80;99.90
19085;DHT22;9675;51.538;6.728;2022-12-07T04:26:36;5.80;99.90
19085;DHT22;9675;51.538;6.728;2022-12-07T04:29:03;5.80;99.90
19085;DHT22;9675;51.538;6.728;2022-12-07T04:31:30;5.70;99.90
19085;DHT22;9675;51.538;6.728;2022-12-07T04:33:57;5.70;99.90
19085;DHT22;9675;51.538;6.728;2022-12-07T04:36:26;5.70;99.90
19085;DHT22;9675;51.538;6.728;2022-12-07T04:38:53;5.70;99.90
19085;DHT22;9675;51.538;6.728;2022-12-07T04:41:21;5.70;99.90
19085;DHT22;9675;51.538;6.728;2022-12-07T04:43:53;5.70;99.90
19085;DHT22;9675;51.538;6.728;2022-12-07T04:46:21;5.70;99.90
19085;DHT22;9675;51.538;6.728;2022-12-07T04:48:49;5.70;99.90
19085;DHT22;9675;51.538;6.728;2022-12-07T04:51:19;5.70;99.90
19085;DHT22;9675;51.538;6.728;2022-12-07T04:53:50;5.60;99.90
19085;DHT22;9675;51.538;6.728;2022-12-07T04:56:17;5.60;99.90
19085;DHT22;9675;51.538;6.728;2022-12-07T04:58:46;5.60;99.90
19085;DHT22;9675;51.538;6.728;2022-12-07T05:01:14;5.60;99.90
19085;DHT22;9675;51.538;6.728;2022-12-07T05:03:43;5.70;99.90
19085;DHT22;9675;51.538;6.728;2022-12-07T05:06:11;5.70;99.90
19085;DHT22;9675;51.538;6.728;2022-12-07T05:08:38;5.60;99.90
19085;DHT22;9675;51.538;6.728;2022-12-07T05:11:07;5.60;99.90
19085;DHT22;9675;51.538;6.728;2022-12-07T05:13:55;5.60;99.90
19085;DHT22;9675;51.538;6.728;2022-12-07T05:16:22;5.60;99.90
19085;DHT22;9675;51.538;6.728;2022-12-07T05:18:49;5.60;99.90
19085;DHT22;9675;51.538;6.728;2022-12-07T05:21:18;5.60;99.90
19085;DHT22;9675;51.538;6.728;2022-12-07T05:23:45;5.60;99.90
19085;DHT22;9675;51.538;6.728;2022-12-07T05:26:13;5.60;99.90
19085;DHT22;9675;51.538;6.728;2022-12-07T05:28:40;5.60;99.90
19085;DHT22;9675;51.538;6.728;2022-12-07T05:31:07;5.60;99.90
19085;DHT22;9675;51.538;6.728;2022-12-07T05:33:34;5.60;99.90
19085;DHT22;9675;51.538;6.728;2022-12-07T05:36:02;5.60;99.90
19085;DHT22;9675;51.538;6.728;2022-12-07T05:38:31;5.60;99.90
19085;DHT22;9675;51.538;6.728;2022-12-07T05:41:00;5.60;99.90
19085;DHT22;9675;51.538;6.728;2022-12-07T05:43:29;5.60;99.90
19085;DHT22;9675;51.538;6.728;2022-12-07T05:45:57;5.60;99.90
19085;DHT22;9675;51.538;6.728;2022-12-07T05:48:25;5.60;99.90
19085;DHT22;9675;51.538;6.728;2022-12-07T05:50:52;5.50;99.90
19085;DHT22;9675;51.538;6.728;2022-12-07T05:53:19;5.50;99.90
19085;DHT22;9675;51.538;6.728;2022-12-07T05:55:47;5.50;99.90
19085;DHT22;9675;51.538;6.728;2022-12-07T05:58:14;5.50;99.90
19085;DHT22;9675;51.538;6.728;2022-12-07T06:00:59;5.50;99.90
19085;DHT22;9675;51.538;6.728;2022-12-07T06:03:27;5.50;99.90
19085;DHT22;9675;51.538;6.728;2022-12-07T06:05:54;5.50;99.90
19085;DHT22;9675;51.538;6.728;2022-12-07T06:08:21;5.50;99.90
19085;DHT22;9675;51.538;6.728;2022-12-07T06:10:48;5.50;99.90
19085;DHT22;9675;51.538;6.728;2022-12-07T06:13:37;5.50;99.90
19085;DHT22;9675;51.538;6.728;2022-12-07T06:16:05;5.50;99.90
19085;DHT22;9675;51.538;6.728;2022-12-07T06:18:32;5.50;99.90
19085;DHT22;9675;51.538;6.728;2022-12-07T06:21:00;5.40;99.90
19085;DHT22;9675;51.538;6.728;2022-12-07T06:23:27;5.50;99.90
19085;DHT22;9675;51.538;6.728;2022-12-07T06:25:54;5.50;99.90
19085;DHT22;9675;51.538;6.728;2022-12-07T06:28:21;5.50;99.90
19085;DHT22;9675;51.538;6.728;2022-12-07T06:30:56;5.50;99.90
19085;DHT22;9675;51.538;6.728;2022-12-07T06:33:26;5.50;99.90
19085;DHT22;9675;51.538;6.728;2022-12-07T06:35:53;5.50;99.90
19085;DHT22;9675;51.538;6.728;2022-12-07T06:38:21;5.50;99.90
19085;DHT22;9675;51.538;6.728;2022-12-07T06:40:48;5.50;99.90
19085;DHT22;9675;51.538;6.728;2022-12-07T06:43:15;5.50;99.90
19085;DHT22;9675;51.538;6.728;2022-12-07T06:45:42;5.50;99.90
19085;DHT22;9675;51.538;6.728;2022-12-07T06:48:09;5.50;99.90
19085;DHT22;9675;51.538;6.728;2022-12-07T06:50:37;5.50;99.90
19085;DHT22;9675;51.538;6.728;2022-12-07T06:53:05;5.50;99.90
19085;DHT22;9675;51.538;6.728;2022-12-07T06:55:32;5.50;99.90
19085;DHT22;9675;51.538;6.728;2022-12-07T06:57:59;5.50;99.90
19085;DHT22;9675;51.538;6.728;2022-12-07T07:00:27;5.50;99.90
19085;DHT22;9675;51.538;6.728;2022-12-07T07:02:54;5.40;99.90
19085;DHT22;9675;51.538;6.728;2022-12-07T07:05:21;5.40;99.90
19085;DHT22;9675;51.538;6.728;2022-12-07T07:07:50;5.40;99.90
19085;DHT22;9675;51.538;6.728;2022-12-07T07:10:18;5.40;99.90
19085;DHT22;9675;51.538;6.728;2022-12-07T07:12:45;5.40;99.90
19085;DHT22;9675;51.538;6.728;2022-12-07T07:15:12;5.40;99.90
19085;DHT22;9675;51.538;6.728;2022-12-07T07:17:39;5.40;99.90
19085;DHT22;9675;51.538;6.728;2022-12-07T07:20:07;5.40;99.90
19085;DHT22;9675;51.538;6.728;2022-12-07T07:22:35;5.40;99.90
19085;DHT22;9675;51.538;6.728;2022-12-07T07:25:04;5.40;99.90
19085;DHT22;9675;51.538;6.728;2022-12-07T07:27:31;5.30;99.90
19085;DHT22;9675;51.538;6.728;2022-12-07T07:29:58;5.40;99.90
19085;DHT22;9675;51.538;6.728;2022-12-07T07:32:25;5.40;99.90
19085;DHT22;9675;51.538;6.728;2022-12-07T07:34:52;5.30;99.90
19085;DHT22;9675;51.538;6.728;2022-12-07T07:37:19;5.30;99.90
19085;DHT22;9675;51.538;6.728;2022-12-07T07:39:46;5.30;99.90
19085;DHT22;9675;51.538;6.728;2022-12-07T07:42:15;5.30;99.90
19085;DHT22;9675;51.538;6.728;2022-12-07T07:44:42;5.30;99.90
19085;DHT22;9675;51.538;6.728;2022-12-07T07:47:09;5.30;99.90
19085;DHT22;9675;51.538;6.728;2022-12-07T07:49:36;5.30;99.90
19085;DHT22;9675;51.538;6.728;2022-12-07T07:52:04;5.30;99.90
19085;DHT22;9675;51.538;6.728;2022-12-07T07:54:32;5.30;99.90
19085;DHT22;9675;51.538;6.728;2022-12-07T07:56:59;5.30;99.90
19085;DHT22;9675;51.538;6.728;2022-12-07T07:59:27;5.30;99.90
19085;DHT22;9675;51.538;6.728;2022-12-07T08:01:54;5.30;99.90
19085;DHT22;9675;51.538;6.728;2022-12-07T08:04:21;5.30;99.90
19085;DHT22;9675;51.538;6.728;2022-12-07T08:06:48;5.30;99.90
19085;DHT22;9675;51.538;6.728;2022-12-07T08:09:15;5.30;99.90
19085;DHT22;9675;51.538;6.728;2022-12-07T08:11:42;5.30;99.90
19085;DHT22;9675;51.538;6.728;2022-12-07T08:14:10;5.30;99.90
19085;DHT22;9675;51.538;6.728;2022-12-07T08:16:39;5.30;99.90
19085;DHT22;9675;51.538;6.728;2022-12-07T08:19:06;5.30;99.90
19085;DHT22;9675;51.538;6.728;2022-12-07T08:21:33;5.30;99.90
19085;DHT22;9675;51.538;6.728;2022-12-07T08:24:00;5.30;99.90
19085;DHT22;9675;51.538;6.728;2022-12-07T08:26:27;5.20;99.90
19085;DHT22;9675;51.538;6.728;2022-12-07T08:28:54;5.20;99.90
19085;DHT22;9675;51.538;6.728;2022-12-07T08:31:21;5.20;99.90
19085;DHT22;9675;51.538;6.728;2022-12-07T08:33:50;5.20;99.90
19085;DHT22;9675;51.538;6.728;2022-12-07T08:36:17;5.20;99.90
19085;DHT22;9675;51.538;6.728;2022-12-07T08:38:44;5.10;99.90
19085;DHT22;9675;51.538;6.728;2022-12-07T08:41:11;5.20;99.90
19085;DHT22;9675;51.538;6.728;2022-12-07T08:43:38;5.20;99.90
19085;DHT22;9675;51.538;6.728;2022-12-07T08:46:10;5.20;99.90
19085;DHT22;9675;51.538;6.728;2022-12-07T08:48:44;5.10;99.90
19085;DHT22;9675;51.538;6.728;2022-12-07T08:51:17;5.20;99.90
19085;DHT22;9675;51.538;6.728;2022-12-07T08:53:44;5.20;99.90
19085;DHT22;9675;51.538;6.728;2022-12-07T08:56:12;5.10;99.90
19085;DHT22;9675;51.538;6.728;2022-12-07T08:58:40;5.10;99.90
19085;DHT22;9675;51.538;6.728;2022-12-07T09:01:07;5.10;99.90
19085;DHT22;9675;51.538;6.728;2022-12-07T09:03:35;5.10;99.90
19085;DHT22;9675;51.538;6.728;2022-12-07T09:06:02;5.10;99.90
19085;DHT22;9675;51.538;6.728;2022-12-07T09:08:34;5.10;99.90
19085;DHT22;9675;51.538;6.728;2022-12-07T09:11:04;5.10;99.90
19085;DHT22;9675;51.538;6.728;2022-12-07T09:13:32;5.10;99.90
19085;DHT22;9675;51.538;6.728;2022-12-07T09:15:58;5.10;99.90
19085;DHT22;9675;51.538;6.728;2022-12-07T09:18:26;5.10;99.90
19085;DHT22;9675;51.538;6.728;2022-12-07T09:20:53;5.10;99.90
19085;DHT22;9675;51.538;6.728;2022-12-07T09:23:20;5.10;99.90
19085;DHT22;9675;51.538;6.728;2022-12-07T09:25:48;5.10;99.90
19085;DHT22;9675;51.538;6.728;2022-12-07T09:28:16;5.10;99.90
19085;DHT22;9675;51.538;6.728;2022-12-07T09:30:45;5.10;99.90
19085;DHT22;9675;51.538;6.728;2022-12-07T09:33:13;5.10;99.90
19085;DHT22;9675;51.538;6.728;2022-12-07T09:35:44;5.10;99.90
19085;DHT22;9675;51.538;6.728;2022-12-07T09:38:12;5.10;99.90
19085;DHT22;9675;51.538;6.728;2022-12-07T09:40:40;5.20;99.90
19085;DHT22;9675;51.538;6.728;2022-12-07T09:43:13;5.20;99.90
19085;DHT22;9675;51.538;6.728;2022-12-07T09:45:44;5.20;99.90
19085;DHT22;9675;51.538;6.728;2022-12-07T09:48:17;5.20;99.90
19085;DHT22;9675;51.538;6.728;2022-12-07T09:50:48;5.20;99.90
19085;DHT22;9675;51.538;6.728;2022-12-07T09:53:23;5.20;99.90
19085;DHT22;9675;51.538;6.728;2022-12-07T09:55:52;5.20;99.90
19085;DHT22;9675;51.538;6.728;2022-12-07T09:58:24;5.30;99.90
19085;DHT22;9675;51.538;6.728;2022-12-07T10:00:54;5.30;99.90
19085;DHT22;9675;51.538;6.728;2022-12-07T10:03:23;5.30;99.90
19085;DHT22;9675;51.538;6.728;2022-12-07T10:05:53;5.30;99.90
19085;DHT22;9675;51.538;6.728;2022-12-07T10:08:20;5.30;99.90
19085;DHT22;9675;51.538;6.728;2022-12-07T10:10:51;5.30;99.90
19085;DHT22;9675;51.538;6.728;2022-12-07T10:13:22;5.30;99.90
19085;DHT22;9675;51.538;6.728;2022-12-07T10:16:00;5.30;99.90
19085;DHT22;9675;51.538;6.728;2022-12-07T10:18:29;5.40;99.90
19085;DHT22;9675;51.538;6.728;2022-12-07T10:21:14;5.30;99.90
19085;DHT22;9675;51.538;6.728;2022-12-07T10:24:02;5.30;99.90
19085;DHT22;9675;51.538;6.728;2022-12-07T10:26:32;5.40;99.90
19085;DHT22;9675;51.538;6.728;2022-12-07T10:29:14;5.50;99.90
19085;DHT22;9675;51.538;6.728;2022-12-07T10:31:45;5.40;99.90
19085;DHT22;9675;51.538;6.728;2022-12-07T10:34:22;5.50;99.90
19085;DHT22;9675;51.538;6.728;2022-12-07T10:36:51;5.50;99.90
19085;DHT22;9675;51.538;6.728;2022-12-07T10:39:21;5.50;99.90
19085;DHT22;9675;51.538;6.728;2022-12-07T10:41:54;5.60;99.90
19085;DHT22;9675;51.538;6.728;2022-12-07T10:44:26;5.60;99.90
19085;DHT22;9675;51.538;6.728;2022-12-07T10:47:04;5.60;99.90
19085;DHT22;9675;51.538;6.728;2022-12-07T10:50:37;5.70;99.90
19085;DHT22;9675;51.538;6.728;2022-12-07T10:53:25;5.70;99.90
19085;DHT22;9675;51.538;6.728;2022-12-07T10:56:10;5.70;99.90
19085;DHT22;9675;51.538;6.728;2022-12-07T10:59:18;5.70;99.90
19085;DHT22;9675;51.538;6.728;2022-12-07T11:02:08;5.80;99.90
19085;DHT22;9675;51.538;6.728;2022-12-07T11:05:02;5.80;99.90
19085;DHT22;9675;51.538;6.728;2022-12-07T11:07:45;5.80;99.90
19085;DHT22;9675;51.538;6.728;2022-12-07T11:10:22;5.80;99.90
19085;DHT22;9675;51.538;6.728;2022-12-07T11:13:18;5.80;99.90
19085;DHT22;9675;51.538;6.728;2022-12-07T11:16:11;5.90;99.90
19085;DHT22;9675;51.538;6.728;2022-12-07T11:19:13;5.90;99.90
19085;DHT22;9675;51.538;6.728;2022-12-07T11:21:55;5.90;99.90
19085;DHT22;9675;51.538;6.728;2022-12-07T11:24:30;5.90;99.90
19085;DHT22;9675;51.538;6.728;2022-12-07T11:27:16;6.00;99.90
19085;DHT22;9675;51.538;6.728;2022-12-07T11:30:08;6.00;99.90
19085;DHT22;9675;51.538;6.728;2022-12-07T11:32:52;6.00;99.90
19085;DHT22;9675;51.538;6.728;2022-12-07T11:35:40;6.00;99.90
19085;DHT22;9675;51.538;6.728;2022-12-07T11:38:17;6.00;99.90
19085;DHT22;9675;51.538;6.728;2022-12-07T11:40:48;6.10;99.90
19085;DHT22;9675;51.538;6.728;2022-12-07T11:43:23;6.10;99.90
19085;DHT22;9675;51.538;6.728;2022-12-07T11:45:59;6.10;99.90
19085;DHT22;9675;51.538;6.728;2022-12-07T11:48:33;6.20;99.90
19085;DHT22;9675;51.538;6.728;2022-12-07T11:51:07;6.20;99.90
19085;DHT22;9675;51.538;6.728;2022-12-07T11:53:41;6.20;99.90
19085;DHT22;9675;51.538;6.728;2022-12-07T11:56:15;6.20;99.90
19085;DHT22;9675;51.538;6.728;2022-12-07T11:58:49;6.30;99.90
19085;DHT22;9675;51.538;6.728;2022-12-07T12:01:35;6.30;99.90
19085;DHT22;9675;51.538;6.728;2022-12-07T12:04:25;6.30;99.90
19085;DHT22;9675;51.538;6.728;2022-12-07T12:07:03;6.30;99.90
19085;DHT22;9675;51.538;6.728;2022-12-07T12:09:35;6.40;99.90
19085;DHT22;9675;51.538;6.728;2022-12-07T12:12:20;6.40;99.90
19085;DHT22;9675;51.538;6.728;2022-12-07T12:15:09;6.40;99.90
19085;DHT22;9675;51.538;6.728;2022-12-07T12:18:03;6.40;99.90
19085;DHT22;9675;51.538;6.728;2022-12-07T12:20:45;6.40;99.90
19085;DHT22;9675;51.538;6.728;2022-12-07T12:23:19;6.40;99.90
19085;DHT22;9675;51.538;6.728;2022-12-07T12:25:50;6.50;99.90
19085;DHT22;9675;51.538;6.728;2022-12-07T12:28:24;6.40;99.90
19085;DHT22;9675;51.538;6.728;2022-12-07T12:31:11;6.50;99.90
19085;DHT22;9675;51.538;6.728;2022-12-07T12:33:43;6.50;99.90
19085;DHT22;9675;51.538;6.728;2022-12-07T12:36:23;6.50;99.90
19085;DHT22;9675;51.538;6.728;2022-12-07T12:39:09;6.50;99.90
19085;DHT22;9675;51.538;6.728;2022-12-07T12:42:13;6.60;99.90
19085;DHT22;9675;51.538;6.728;2022-12-07T12:47:54;6.60;99.90
19085;DHT22;9675;51.538;6.728;2022-12-07T12:50:27;6.60;99.90
19085;DHT22;9675;51.538;6.728;2022-12-07T12:53:04;6.60;99.90
19085;DHT22;9675;51.538;6.728;2022-12-07T12:59:18;6.60;99.90
19085;DHT22;9675;51.538;6.728;2022-12-07T13:01:50;6.60;99.90
19085;DHT22;9675;51.538;6.728;2022-12-07T13:04:49;6.60;99.90
19085;DHT22;9675;51.538;6.728;2022-12-07T13:07:56;6.70;99.90
19085;DHT22;9675;51.538;6.728;2022-12-07T13:10:38;6.70;99.90
19085;DHT22;9675;51.538;6.728;2022-12-07T13:13:32;6.70;99.90
19085;DHT22;9675;51.538;6.728;2022-12-07T13:16:37;6.70;99.90
19085;DHT22;9675;51.538;6.728;2022-12-07T13:22:46;6.70;99.90
19085;DHT22;9675;51.538;6.728;2022-12-07T13:25:22;6.70;99.90
19085;DHT22;9675;51.538;6.728;2022-12-07T13:28:09;6.70;99.90
19085;DHT22;9675;51.538;6.728;2022-12-07T13:30:46;6.70;99.90
19085;DHT22;9675;51.538;6.728;2022-12-07T13:33:19;6.70;99.90
19085;DHT22;9675;51.538;6.728;2022-12-07T13:35:46;6.80;99.90
19085;DHT22;9675;51.538;6.728;2022-12-07T13:38:23;6.70;99.90
19085;DHT22;9675;51.538;6.728;2022-12-07T13:41:01;6.80;99.90
19085;DHT22;9675;51.538;6.728;2022-12-07T13:43:41;6.80;99.90
19085;DHT22;9675;51.538;6.728;2022-12-07T13:46:11;6.80;99.90
19085;DHT22;9675;51.538;6.728;2022-12-07T13:48:45;6.80;99.90
19085;DHT22;9675;51.538;6.728;2022-12-07T13:51:22;6.80;99.90
19085;DHT22;9675;51.538;6.728;2022-12-07T13:53:53;6.80;99.90
19085;DHT22;9675;51.538;6.728;2022-12-07T13:56:22;6.80;99.90
19085;DHT22;9675;51.538;6.728;2022-12-07T13:58:56;6.80;99.90
19085;DHT22;9675;51.538;6.728;2022-12-07T14:01:24;6.80;99.90
19085;DHT22;9675;51.538;6.728;2022-12-07T14:03:51;6.80;99.90
19085;DHT22;9675;51.538;6.728;2022-12-07T14:06:24;6.80;99.90
19085;DHT22;9675;51.538;6.728;2022-12-07T14:09:17;6.80;99.90
19085;DHT22;9675;51.538;6.728;2022-12-07T14:11:47;6.80;99.90
19085;DHT22;9675;51.538;6.728;2022-12-07T14:14:20;6.80;99.90
19085;DHT22;9675;51.538;6.728;2022-12-07T14:17:08;6.80;99.90
19085;DHT22;9675;51.538;6.728;2022-12-07T14:19:48;6.80;99.90
19085;DHT22;9675;51.538;6.728;2022-12-07T14:22:27;6.80;99.90
19085;DHT22;9675;51.538;6.728;2022-12-07T14:25:18;6.80;99.90
19085;DHT22;9675;51.538;6.728;2022-12-07T14:27:50;6.80;99.90
19085;DHT22;9675;51.538;6.728;2022-12-07T14:30:24;6.80;99.90
19085;DHT22;9675;51.538;6.728;2022-12-07T14:32:55;6.80;99.90
19085;DHT22;9675;51.538;6.728;2022-12-07T14:35:26;6.80;99.90
19085;DHT22;9675;51.538;6.728;2022-12-07T14:37:54;6.80;99.90
19085;DHT22;9675;51.538;6.728;2022-12-07T14:40:23;6.80;99.90
19085;DHT22;9675;51.538;6.728;2022-12-07T14:42:56;6.80;99.90
19085;DHT22;9675;51.538;6.728;2022-12-07T14:45:29;6.80;99.90
19085;DHT22;9675;51.538;6.728;2022-12-07T14:47:56;6.80;99.90
19085;DHT22;9675;51.538;6.728;2022-12-07T14:50:23;6.70;99.90
19085;DHT22;9675;51.538;6.728;2022-12-07T14:52:54;6.80;99.90
19085;DHT22;9675;51.538;6.728;2022-12-07T14:55:24;6.70;99.90
19085;DHT22;9675;51.538;6.728;2022-12-07T14:57:53;6.70;99.90
19085;DHT22;9675;51.538;6.728;2022-12-07T15:00:21;6.70;99.90
19085;DHT22;9675;51.538;6.728;2022-12-07T15:02:51;6.70;99.90
19085;DHT22;9675;51.538;6.728;2022-12-07T15:05:19;6.70;99.90
19085;DHT22;9675;51.538;6.728;2022-12-07T15:07:48;6.70;99.90
19085;DHT22;9675;51.538;6.728;2022-12-07T15:10:17;6.70;99.90
19085;DHT22;9675;51.538;6.728;2022-12-07T15:12:46;6.60;99.90
19085;DHT22;9675;51.538;6.728;2022-12-07T15:15:14;6.70;99.90
19085;DHT22;9675;51.538;6.728;2022-12-07T15:17:42;6.70;99.90
19085;DHT22;9675;51.538;6.728;2022-12-07T15:20:13;6.60;99.90
19085;DHT22;9675;51.538;6.728;2022-12-07T15:22:42;6.60;99.90
19085;DHT22;9675;51.538;6.728;2022-12-07T15:25:13;6.60;99.90
19085;DHT22;9675;51.538;6.728;2022-12-07T15:27:41;6.60;99.90
19085;DHT22;9675;51.538;6.728;2022-12-07T15:30:08;6.60;99.90
19085;DHT22;9675;51.538;6.728;2022-12-07T15:32:36;6.60;99.90
19085;DHT22;9675;51.538;6.728;2022-12-07T15:35:03;6.60;99.90
19085;DHT22;9675;51.538;6.728;2022-12-07T15:37:32;6.60;99.90
19085;DHT22;9675;51.538;6.728;2022-12-07T15:39:59;6.70;99.90
19085;DHT22;9675;51.538;6.728;2022-12-07T15:42:26;6.80;99.90
19085;DHT22;9675;51.538;6.728;2022-12-07T15:44:53;7.00;99.90
19085;DHT22;9675;51.538;6.728;2022-12-07T15:47:33;7.10;99.90
19085;DHT22;9675;51.538;6.728;2022-12-07T15:50:03;7.20;99.90
19085;DHT22;9675;51.538;6.728;2022-12-07T15:52:33;7.30;99.90
19085;DHT22;9675;51.538;6.728;2022-12-07T15:55:00;7.30;99.90
19085;DHT22;9675;51.538;6.728;2022-12-07T15:57:29;7.40;99.90
19085;DHT22;9675;51.538;6.728;2022-12-07T15:59:56;7.40;99.90
19085;DHT22;9675;51.538;6.728;2022-12-07T16:02:24;7.50;99.90
19085;DHT22;9675;51.538;6.728;2022-12-07T16:04:51;7.50;99.90
19085;DHT22;9675;51.538;6.728;2022-12-07T16:07:19;7.50;99.90
19085;DHT22;9675;51.538;6.728;2022-12-07T16:09:48;7.50;99.90
19085;DHT22;9675;51.538;6.728;2022-12-07T16:12:16;7.50;99.90
19085;DHT22;9675;51.538;6.728;2022-12-07T16:14:43;7.60;99.90
19085;DHT22;9675;51.538;6.728;2022-12-07T16:17:10;7.60;99.90
19085;DHT22;9675;51.538;6.728;2022-12-07T16:19:38;7.60;99.90
19085;DHT22;9675;51.538;6.728;2022-12-07T16:22:06;7.60;99.90
19085;DHT22;9675;51.538;6.728;2022-12-07T16:24:33;7.60;99.90
19085;DHT22;9675;51.538;6.728;2022-12-07T16:27:02;7.60;99.90
19085;DHT22;9675;51.538;6.728;2022-12-07T16:29:29;7.60;99.90
19085;DHT22;9675;51.538;6.728;2022-12-07T16:31:56;7.60;99.90
19085;DHT22;9675;51.538;6.728;2022-12-07T16:34:23;7.60;99.90
19085;DHT22;9675;51.538;6.728;2022-12-07T16:36:50;7.60;99.90
19085;DHT22;9675;51.538;6.728;2022-12-07T16:39:17;7.60;99.90
19085;DHT22;9675;51.538;6.728;2022-12-07T16:41:44;7.60;99.90
19085;DHT22;9675;51.538;6.728;2022-12-07T16:44:13;7.60;99.90
19085;DHT22;9675;51.538;6.728;2022-12-07T16:46:41;7.60;99.90